Wautoma, WI

4:15 PM CDT on August 20, 2014 (GMT -0500)
Waupaca Municipal | Change Station
CLOSE
Current Station
Airport
Location: Waupaca,
Elevation: 827 ft
Nearby Weather Stations

Elev 827 ft 44.33 °N, 89.02 °W | Updated 20 minutes ago

Scattered Clouds
Scattered Clouds
79 °F
Feels Like 79 °F
N
6
Wind Variable Wind from NNW

Today
High -- | Low -- °F
--% Chance of Precip.
Yesterday
High -- | Low -- °F
Precip. -- in
6:06 AM 7:53 PM
Waning Crescent, 19% visible
Pressure 29.89 in
Visibility 10.0 miles
Clouds Scattered Clouds 3100 ft
Scattered Clouds 3800 ft
Dew Point 63 °F
Humidity 57%
Rainfall 0.09 in
Snow Depth Not available.
UV 4 out of 12
Pollen 9.30 out of 12
Air Quality Not available.
Flu Activity Not available.
METAR KPCZ 202055Z AUTO 34005KT 10SM SCT031 SCT038 26/17 A2989 RMK AO2 T02600170

More Conditions Fewer Conditions

Pressure 29.89 in
Visibility 10.0 miles
Clouds Scattered Clouds 3100 ft
Scattered Clouds 3800 ft
Dew Point 63 °F
Humidity 57%
Rainfall 0.09 in
Snow Depth Not available.
UV 4 out of 12
Pollen 9.30 out of 12
Air Quality Not available.
Flu Activity Not available.
METAR KPCZ 202055Z AUTO 34005KT 10SM SCT031 SCT038 26/17 A2989 RMK AO2 T02600170

More Conditions Fewer Conditions

10-Day Weather Forecast

Almanac

Astronomy

Aug. 20, 2014 Rise Set
Actual Time 6:06 AM CDT 7:53 PM CDT
Civil Twilight 5:35 AM CDT 8:24 PM CDT
Nautical Twilight 4:58 AM CDT 9:01 PM CDT
Astronomical Twilight 4:17 AM CDT 9:42 PM CDT
Moon 1:42 AM CDT 4:42 PM CDT
Length of Visible Light 14h 48m
Length of Day
13h 47m
Tomorrow will be 2m 47s shorter.
Waning Crescent, 19% of the Moon is Illuminated
Today
Waning Crescent
Aug 25
New
Sep 2
First Quarter
Sep 8
Full
Sep 15
Last Quarter

Today's Extremes

State Highs State Lows

Community

WunderPhotos

Upload Photos

1,745,762 photos uploaded!

WunderBlogs® & News

Nearby

Snow Depth

Station Depth Elevation
No new snow has been reported.

Earthquake Activity

City Distance Mag. Time & Date
No recent earthquake activity has been reported nearby.
Minimum magnitude displayed is 2.5.

Coastal Water Temperatures

Place Temperature
No Stations Reporting

Nearby Weather Stations